createdAt,value
2019-05-05T00:02:00.169Z,83.20
2019-05-05T00:04:34.905Z,83.60
2019-05-05T00:07:01.376Z,83.60
2019-05-05T00:09:28.129Z,83.70
2019-05-05T00:12:14.764Z,83.60
2019-05-05T00:14:44.276Z,84.30
2019-05-05T00:17:21.693Z,84.50
2019-05-05T00:19:48.186Z,84.40
2019-05-05T00:22:15.177Z,85.50
2019-05-05T00:24:44.239Z,86.30
2019-05-05T00:27:10.105Z,85.80
2019-05-05T00:29:36.360Z,85.90
2019-05-05T00:32:04.955Z,86.30
2019-05-05T00:34:31.398Z,86.70
2019-05-05T00:36:57.926Z,86.60
2019-05-05T00:39:25.503Z,86.60
2019-05-05T00:41:52.437Z,86.30
2019-05-05T00:44:19.049Z,86.00
2019-05-05T00:46:56.541Z,84.90
2019-05-05T00:49:25.868Z,84.60
2019-05-05T00:51:54.666Z,83.50
2019-05-05T00:54:21.157Z,83.00
2019-05-05T00:56:47.518Z,82.70
2019-05-05T00:59:15.644Z,82.40
2019-05-05T01:02:02.053Z,82.20
2019-05-05T01:04:35.116Z,82.10
2019-05-05T01:07:01.516Z,81.10
2019-05-05T01:09:29.741Z,80.00
2019-05-05T01:11:57.813Z,80.80
2019-05-05T01:14:24.990Z,81.40
2019-05-05T01:16:51.649Z,80.80
2019-05-05T01:19:18.293Z,81.30
2019-05-05T01:21:45.377Z,81.10
2019-05-05T01:24:14.276Z,80.70
2019-05-05T01:26:40.360Z,79.70
2019-05-05T01:29:08.823Z,79.00
2019-05-05T01:31:35.144Z,79.00
2019-05-05T01:34:09.442Z,79.30
2019-05-05T01:36:35.828Z,79.30
2019-05-05T01:39:10.490Z,80.00
2019-05-05T01:41:41.638Z,80.90
2019-05-05T01:44:08.032Z,81.10
2019-05-05T01:46:35.308Z,81.00
2019-05-05T01:49:02.722Z,81.10
2019-05-05T01:51:29.160Z,82.00
2019-05-05T01:53:55.781Z,82.80
2019-05-05T01:56:24.552Z,82.20
2019-05-05T01:58:51.414Z,81.70
2019-05-05T02:01:17.848Z,81.70
2019-05-05T02:03:45.364Z,82.50
2019-05-05T02:06:11.853Z,81.90
2019-05-05T02:08:38.417Z,81.30
2019-05-05T02:11:05.300Z,81.10
2019-05-05T02:13:31.871Z,81.00
2019-05-05T02:15:58.623Z,81.00
2019-05-05T02:18:26.265Z,81.60
2019-05-05T02:20:59.154Z,81.90
2019-05-05T02:23:25.393Z,82.30
2019-05-05T02:25:51.770Z,82.60
2019-05-05T02:28:18.002Z,82.10
2019-05-05T02:30:47.170Z,81.40
2019-05-05T02:33:15.781Z,81.00
2019-05-05T02:35:45.622Z,81.20
2019-05-05T02:38:11.302Z,81.50
2019-05-05T02:40:38.256Z,81.70
2019-05-05T02:43:05.978Z,81.90
2019-05-05T02:45:49.933Z,81.80
2019-05-05T02:48:18.970Z,81.60
2019-05-05T02:51:02.341Z,81.60
2019-05-05T02:53:33.993Z,81.40
2019-05-05T02:56:04.314Z,82.50
2019-05-05T02:58:34.055Z,82.80
2019-05-05T03:01:04.922Z,83.40
2019-05-05T03:03:34.355Z,82.40
2019-05-05T03:06:00.777Z,81.90
2019-05-05T03:08:28.333Z,81.60
2019-05-05T03:10:57.169Z,81.70
2019-05-05T03:13:24.325Z,82.00
2019-05-05T03:15:55.056Z,82.60
2019-05-05T03:18:22.013Z,83.10
2019-05-05T03:21:01.517Z,83.50
2019-05-05T03:23:17.753Z,83.90
2019-05-05T03:25:45.205Z,83.90
2019-05-05T03:28:13.585Z,83.90
2019-05-05T03:30:40.079Z,83.50
2019-05-05T03:33:06.507Z,83.70
2019-05-05T03:35:34.589Z,84.60
2019-05-05T03:38:01.140Z,84.40
2019-05-05T03:40:30.097Z,85.40
2019-05-05T03:43:07.429Z,86.40
2019-05-05T03:45:50.819Z,86.80
2019-05-05T03:48:17.151Z,87.10
2019-05-05T03:50:44.617Z,86.80
2019-05-05T03:53:11.138Z,86.60
2019-05-05T03:55:38.462Z,86.60
2019-05-05T03:58:05.317Z,86.40
2019-05-05T04:00:45.048Z,86.50
2019-05-05T04:03:11.298Z,85.40
2019-05-05T04:05:39.538Z,86.10
2019-05-05T04:08:05.982Z,86.80
2019-05-05T04:10:33.497Z,87.10
2019-05-05T04:13:01.075Z,86.90
2019-05-05T04:15:30.825Z,86.40
2019-05-05T04:17:58.976Z,86.20
2019-05-05T04:20:26.809Z,87.60
2019-05-05T04:22:54.236Z,89.10
2019-05-05T04:25:21.097Z,89.50
2019-05-05T04:27:47.367Z,90.00
2019-05-05T04:30:14.267Z,90.00
2019-05-05T04:32:40.719Z,90.10
2019-05-05T04:35:07.408Z,90.20
2019-05-05T04:37:34.208Z,90.00
2019-05-05T04:40:00.665Z,89.40
2019-05-05T04:42:26.880Z,88.60
2019-05-05T04:44:53.770Z,88.80
2019-05-05T04:47:25.063Z,88.30
2019-05-05T04:50:04.178Z,88.40
2019-05-05T04:52:31.264Z,87.90
2019-05-05T04:54:57.684Z,87.40
2019-05-05T04:57:24.091Z,87.20
2019-05-05T04:59:54.013Z,86.50
2019-05-05T05:02:23.610Z,86.90
2019-05-05T05:04:54.553Z,86.90
2019-05-05T05:07:21.136Z,86.90
2019-05-05T05:09:47.845Z,86.40
2019-05-05T05:12:14.624Z,85.80
2019-05-05T05:14:41.437Z,86.10
2019-05-05T05:17:09.622Z,86.10
2019-05-05T05:19:35.948Z,86.30
2019-05-05T05:22:04.723Z,87.00
2019-05-05T05:24:30.221Z,86.80
2019-05-05T05:26:56.784Z,86.90
2019-05-05T05:29:23.895Z,86.90
2019-05-05T05:31:50.785Z,87.10
2019-05-05T05:34:17.472Z,88.20
2019-05-05T05:36:44.372Z,87.10
2019-05-05T05:39:21.453Z,86.70
2019-05-05T05:41:48.005Z,85.90
2019-05-05T05:44:28.689Z,86.10
2019-05-05T05:46:59.897Z,85.60
2019-05-05T05:49:34.646Z,85.40
2019-05-05T05:52:12.429Z,84.70
2019-05-05T05:54:29.428Z,83.60
2019-05-05T05:56:55.704Z,84.30
2019-05-05T05:59:24.531Z,84.90
2019-05-05T06:01:50.320Z,86.10
2019-05-05T06:04:16.836Z,87.20
2019-05-05T06:06:43.932Z,87.20
2019-05-05T06:09:10.629Z,86.60
2019-05-05T06:11:37.140Z,84.90
2019-05-05T06:14:04.142Z,82.70
2019-05-05T06:16:30.824Z,81.10
2019-05-05T06:18:57.093Z,79.80
2019-05-05T06:21:24.171Z,78.00
2019-05-05T06:23:51.142Z,78.00
2019-05-05T06:26:17.401Z,78.80
2019-05-05T06:28:44.718Z,79.90
2019-05-05T06:31:13.953Z,79.40
2019-05-05T06:33:40.569Z,79.10
2019-05-05T06:36:06.832Z,79.70
2019-05-05T06:38:34.641Z,78.80
2019-05-05T06:41:04.279Z,78.30
2019-05-05T06:43:34.670Z,77.30
2019-05-05T06:46:21.205Z,76.40
2019-05-05T06:48:47.569Z,76.20
2019-05-05T06:51:14.177Z,74.30
2019-05-05T06:53:41.160Z,73.20
2019-05-05T06:56:07.764Z,72.30
2019-05-05T06:58:34.782Z,71.90
2019-05-05T07:01:03.481Z,71.90
2019-05-05T07:03:29.461Z,72.50
2019-05-05T07:05:55.985Z,74.50
2019-05-05T07:08:24.376Z,75.80
2019-05-05T07:10:50.995Z,76.90
2019-05-05T07:13:17.215Z,76.80
2019-05-05T07:15:45.171Z,77.30
2019-05-05T07:18:11.599Z,77.30
2019-05-05T07:20:37.927Z,76.80
2019-05-05T07:23:05.345Z,77.20
2019-05-05T07:25:42.135Z,78.90
2019-05-05T07:28:00.253Z,78.20
2019-05-05T07:30:26.893Z,77.50
2019-05-05T07:32:53.772Z,76.30
2019-05-05T07:35:34.604Z,76.00
2019-05-05T07:38:01.496Z,76.50
2019-05-05T07:40:27.760Z,75.70
2019-05-05T07:42:54.373Z,74.60
2019-05-05T07:45:23.563Z,74.20
2019-05-05T07:47:48.880Z,74.00
2019-05-05T07:50:28.614Z,73.40
2019-05-05T07:52:43.859Z,73.30
2019-05-05T07:55:10.756Z,73.30
2019-05-05T07:57:37.089Z,74.40
2019-05-05T08:00:05.504Z,73.40
2019-05-05T08:02:33.823Z,72.60
2019-05-05T08:05:00.361Z,71.00
2019-05-05T08:07:26.911Z,70.70
2019-05-05T08:09:53.815Z,69.20
2019-05-05T08:12:20.592Z,67.70
2019-05-05T08:14:47.236Z,68.10
2019-05-05T08:17:30.691Z,66.90
2019-05-05T08:20:03.977Z,63.10
2019-05-05T08:22:30.218Z,58.90
2019-05-05T08:24:58.616Z,53.30
2019-05-05T08:27:34.049Z,52.70
2019-05-05T08:30:08.282Z,56.20
2019-05-05T08:32:36.575Z,58.90
2019-05-05T08:35:05.636Z,60.00
2019-05-05T08:37:34.204Z,65.70
2019-05-05T08:40:00.096Z,72.00
2019-05-05T08:42:26.572Z,75.10
2019-05-05T08:44:53.836Z,77.00
2019-05-05T08:47:20.248Z,79.80
2019-05-05T08:49:46.484Z,81.70
2019-05-05T08:52:14.507Z,81.30
2019-05-05T08:54:41.065Z,81.40
2019-05-05T08:57:07.625Z,81.00
2019-05-05T08:59:34.236Z,77.90
2019-05-05T09:02:00.451Z,71.10
2019-05-05T09:04:26.738Z,65.50
2019-05-05T09:06:54.316Z,59.70
2019-05-05T09:09:20.916Z,62.20
2019-05-05T09:11:47.524Z,61.00
2019-05-05T09:14:14.885Z,57.50
2019-05-05T09:16:42.056Z,51.20
2019-05-05T09:19:14.627Z,47.80
2019-05-05T09:21:41.536Z,43.60
2019-05-05T09:24:18.693Z,43.30
2019-05-05T09:26:54.294Z,44.20
2019-05-05T09:29:24.260Z,45.40
2019-05-05T09:31:50.844Z,50.00
2019-05-05T09:34:17.094Z,56.80
2019-05-05T09:36:44.087Z,63.70
2019-05-05T09:39:10.290Z,66.80
2019-05-05T09:41:36.587Z,68.70
2019-05-05T09:44:04.323Z,63.50
2019-05-05T09:46:30.662Z,55.50
2019-05-05T09:48:56.937Z,51.00
2019-05-05T09:51:24.165Z,51.80
2019-05-05T09:53:50.625Z,51.50
2019-05-05T09:56:17.242Z,52.70
2019-05-05T09:58:44.109Z,54.40
2019-05-05T10:01:10.543Z,55.10
2019-05-05T10:03:37.196Z,54.80
2019-05-05T10:06:04.914Z,56.30
2019-05-05T10:08:31.673Z,57.50
2019-05-05T10:10:59.959Z,57.60
2019-05-05T10:13:26.568Z,58.30
2019-05-05T10:15:54.805Z,58.30
2019-05-05T10:18:21.198Z,58.30
2019-05-05T10:20:47.720Z,56.90
2019-05-05T10:23:14.331Z,58.40
2019-05-05T10:25:45.903Z,65.40
2019-05-05T10:28:13.559Z,58.70
2019-05-05T10:30:40.129Z,49.70
2019-05-05T10:33:06.654Z,44.50
2019-05-05T10:35:34.412Z,41.00
2019-05-05T10:38:01.187Z,42.30
2019-05-05T10:40:29.707Z,44.80
2019-05-05T10:42:56.067Z,48.70
2019-05-05T10:45:24.482Z,60.50
2019-05-05T10:47:51.183Z,73.70
2019-05-05T10:50:17.872Z,79.40
2019-05-05T10:52:44.358Z,83.30
2019-05-05T10:55:11.794Z,85.00
2019-05-05T10:57:38.381Z,87.10
2019-05-05T11:00:12.211Z,83.40
2019-05-05T11:02:36.259Z,84.60
2019-05-05T11:05:07.044Z,81.40
2019-05-05T11:07:34.107Z,81.10
2019-05-05T11:10:03.601Z,77.50
2019-05-05T11:12:30.084Z,74.70
2019-05-05T11:14:56.706Z,70.90
2019-05-05T11:17:24.782Z,69.50
2019-05-05T11:19:51.204Z,69.90
2019-05-05T11:22:17.436Z,62.80
2019-05-05T11:24:57.276Z,61.80
2019-05-05T11:27:13.193Z,60.40
2019-05-05T11:29:59.951Z,59.40
2019-05-05T11:32:33.690Z,58.10
2019-05-05T11:34:59.747Z,57.30
2019-05-05T11:37:25.983Z,55.30
2019-05-05T11:39:53.652Z,53.60
2019-05-05T11:42:20.045Z,55.20
2019-05-05T11:44:47.536Z,51.40
2019-05-05T11:47:14.126Z,45.00
2019-05-05T11:49:40.516Z,44.50
2019-05-05T11:52:07.008Z,51.50
2019-05-05T11:54:33.227Z,55.80
2019-05-05T11:56:59.542Z,61.60
2019-05-05T11:59:26.091Z,68.50
2019-05-05T12:01:54.653Z,70.00
2019-05-05T12:04:20.605Z,74.80
2019-05-05T12:06:46.876Z,73.20
2019-05-05T12:09:15.368Z,75.60
2019-05-05T12:11:43.751Z,75.40
2019-05-05T12:14:14.186Z,72.70
2019-05-05T12:16:40.376Z,66.50
2019-05-05T12:19:08.892Z,55.60
2019-05-05T12:21:35.266Z,52.60
2019-05-05T12:24:03.919Z,56.20
2019-05-05T12:26:35.052Z,63.60
2019-05-05T12:29:03.356Z,73.80
2019-05-05T12:31:31.495Z,79.70
2019-05-05T12:33:57.937Z,82.90
2019-05-05T12:36:24.521Z,85.10
2019-05-05T12:38:51.077Z,84.80
2019-05-05T12:41:20.930Z,84.60
2019-05-05T12:43:46.993Z,85.20
2019-05-05T12:46:15.463Z,82.00
2019-05-05T12:48:43.874Z,78.50
2019-05-05T12:51:10.549Z,75.10
2019-05-05T12:53:37.133Z,70.80
2019-05-05T12:56:04.070Z,70.70
2019-05-05T12:58:30.417Z,67.60
2019-05-05T13:00:58.594Z,66.50
2019-05-05T13:03:24.921Z,67.20
2019-05-05T13:05:51.181Z,65.20
2019-05-05T13:08:17.874Z,62.70
2019-05-05T13:10:44.470Z,56.30
2019-05-05T13:13:11.164Z,52.00
2019-05-05T13:15:37.749Z,49.30
2019-05-05T13:18:04.550Z,43.10
2019-05-05T13:20:35.404Z,45.40
2019-05-05T13:23:14.375Z,40.20
2019-05-05T13:26:00.537Z,49.60
2019-05-05T13:28:26.969Z,46.40
2019-05-05T13:30:54.092Z,51.60
2019-05-05T13:33:21.090Z,54.10
2019-05-05T13:35:47.679Z,55.40
2019-05-05T13:38:14.583Z,55.40
2019-05-05T13:40:40.973Z,52.30
2019-05-05T13:43:07.641Z,51.90
2019-05-05T13:45:39.104Z,51.50
2019-05-05T13:48:05.416Z,53.20
2019-05-05T13:50:34.158Z,53.20
2019-05-05T13:53:00.714Z,52.20
2019-05-05T13:55:27.356Z,49.60
2019-05-05T13:57:54.858Z,48.10
2019-05-05T14:00:21.665Z,47.80
2019-05-05T14:02:48.082Z,50.10
2019-05-05T14:05:14.945Z,51.20
2019-05-05T14:07:43.463Z,50.40
2019-05-05T14:10:09.733Z,49.10
2019-05-05T14:12:36.075Z,48.00
2019-05-05T14:15:04.397Z,49.00
2019-05-05T14:17:30.813Z,46.30
2019-05-05T14:20:05.294Z,46.20
2019-05-05T14:22:25.557Z,45.00
2019-05-05T14:24:59.970Z,50.30
2019-05-05T14:27:26.341Z,52.70
2019-05-05T14:29:54.928Z,52.10
2019-05-05T14:32:24.026Z,52.80
2019-05-05T14:34:55.377Z,54.30
2019-05-05T14:37:34.044Z,55.20
2019-05-05T14:40:00.490Z,56.10
2019-05-05T14:42:27.159Z,56.10
2019-05-05T14:44:54.672Z,55.40
2019-05-05T14:47:21.274Z,55.20
2019-05-05T14:49:47.843Z,54.50
2019-05-05T14:52:14.442Z,51.00
2019-05-05T14:54:43.365Z,52.30
2019-05-05T14:57:09.353Z,52.30
2019-05-05T14:59:37.102Z,54.20
2019-05-05T15:02:04.242Z,55.80
2019-05-05T15:04:34.456Z,52.60
2019-05-05T15:07:14.295Z,52.30
2019-05-05T15:09:48.217Z,53.80
2019-05-05T15:15:07.288Z,55.20
2019-05-05T15:17:33.837Z,55.60
2019-05-05T15:20:00.714Z,54.30
2019-05-05T15:22:27.373Z,54.60
2019-05-05T15:24:54.091Z,54.40
2019-05-05T15:27:20.650Z,53.80
2019-05-05T15:29:47.260Z,53.80
2019-05-05T15:32:14.910Z,54.20
2019-05-05T15:34:41.361Z,54.80
2019-05-05T15:37:07.625Z,56.30
2019-05-05T15:39:34.387Z,57.00
2019-05-05T15:42:00.913Z,57.80
2019-05-05T15:44:27.605Z,59.10
2019-05-05T15:46:57.712Z,59.30
2019-05-05T15:49:22.556Z,59.90
2019-05-05T15:51:48.821Z,60.40
2019-05-05T15:54:15.311Z,60.70
2019-05-05T15:56:41.929Z,59.60
2019-05-05T15:59:08.608Z,59.20
2019-05-05T16:01:35.237Z,56.50
2019-05-05T16:04:03.566Z,56.50
2019-05-05T16:06:30.152Z,55.70
2019-05-05T16:08:56.791Z,54.10
2019-05-05T16:11:23.553Z,53.20
2019-05-05T16:13:49.761Z,54.10
2019-05-05T16:16:21.130Z,54.50
2019-05-05T16:19:04.529Z,55.40
2019-05-05T16:21:26.350Z,55.50
2019-05-05T16:24:00.842Z,55.80
2019-05-05T16:26:27.402Z,56.20
2019-05-05T16:28:55.302Z,56.50
2019-05-05T16:31:23.619Z,55.10
2019-05-05T16:33:50.200Z,54.30
2019-05-05T16:36:16.823Z,53.60
2019-05-05T16:38:43.774Z,54.30
2019-05-05T16:41:10.557Z,55.20
2019-05-05T16:43:36.828Z,57.00
2019-05-05T16:46:04.265Z,57.80
2019-05-05T16:48:30.873Z,57.30
2019-05-05T16:50:57.460Z,56.90
2019-05-05T16:53:38.957Z,58.80
2019-05-05T16:56:13.805Z,59.70
2019-05-05T16:58:39.937Z,58.70
2019-05-05T17:01:08.568Z,58.30
2019-05-05T17:03:34.865Z,57.80
2019-05-05T17:06:01.086Z,57.60
2019-05-05T17:08:27.720Z,58.00
2019-05-05T17:10:54.339Z,58.70
2019-05-05T17:13:37.588Z,60.00
2019-05-05T17:16:24.064Z,60.20
2019-05-05T17:18:55.711Z,61.30
2019-05-05T17:21:39.342Z,62.60
2019-05-05T17:24:05.817Z,63.80
2019-05-05T17:26:32.320Z,65.00
2019-05-05T17:28:58.572Z,65.70
2019-05-05T17:31:25.200Z,64.90
2019-05-05T17:33:53.451Z,65.60
2019-05-05T17:36:21.608Z,64.90
2019-05-05T17:38:48.052Z,65.50
2019-05-05T17:41:23.593Z,65.70
2019-05-05T17:44:04.519Z,66.60
2019-05-05T17:46:35.424Z,65.80
2019-05-05T17:49:18.841Z,66.40
2019-05-05T17:51:47.334Z,66.80
2019-05-05T17:54:15.582Z,65.40
2019-05-05T17:56:42.088Z,65.20
2019-05-05T17:59:08.422Z,65.30
2019-05-05T18:01:34.913Z,65.00
2019-05-05T18:04:01.313Z,64.80
2019-05-05T18:06:38.749Z,65.00
2019-05-05T18:09:15.173Z,64.50
2019-05-05T18:11:49.456Z,64.70
2019-05-05T18:14:20.677Z,64.60
2019-05-05T18:16:54.194Z,64.80
2019-05-05T18:19:20.806Z,64.50
2019-05-05T18:21:47.137Z,65.10
2019-05-05T18:24:13.816Z,65.60
2019-05-05T18:26:40.256Z,65.30
2019-05-05T18:29:06.773Z,65.60
2019-05-05T18:31:33.728Z,66.10
2019-05-05T18:34:00.273Z,66.60
2019-05-05T18:36:26.694Z,66.70
2019-05-05T18:38:53.884Z,67.10
2019-05-05T18:41:23.687Z,67.00
2019-05-05T18:43:52.172Z,67.60
2019-05-05T18:46:18.413Z,67.90
2019-05-05T18:48:44.654Z,68.10
2019-05-05T18:51:10.886Z,68.70
2019-05-05T18:53:37.135Z,68.80
2019-05-05T18:56:03.888Z,69.40
2019-05-05T18:58:31.410Z,69.40
2019-05-05T19:01:05.608Z,69.30
2019-05-05T19:03:36.861Z,68.80
2019-05-05T19:06:17.500Z,68.90
2019-05-05T19:08:54.187Z,69.80
2019-05-05T19:11:17.110Z,69.60
2019-05-05T19:13:44.682Z,69.70
2019-05-05T19:16:11.509Z,70.10
2019-05-05T19:18:37.728Z,70.30
2019-05-05T19:21:05.990Z,71.10
2019-05-05T19:23:33.767Z,70.90
2019-05-05T19:26:00.285Z,71.10
2019-05-05T19:28:26.614Z,71.00
2019-05-05T19:30:54.884Z,70.50
2019-05-05T19:33:20.921Z,70.80
2019-05-05T19:35:47.443Z,70.60
2019-05-05T19:38:15.712Z,70.90
2019-05-05T19:40:42.077Z,70.50
2019-05-05T19:43:08.372Z,70.70
2019-05-05T19:45:36.017Z,70.70
2019-05-05T19:48:05.580Z,70.50
2019-05-05T19:50:33.767Z,70.30
2019-05-05T19:53:00.061Z,71.00
2019-05-05T19:55:26.296Z,71.10
2019-05-05T19:57:54.057Z,71.10
2019-05-05T20:00:23.407Z,71.40
2019-05-05T20:03:01.357Z,72.20
2019-05-05T20:05:17.478Z,71.80
2019-05-05T20:07:43.981Z,72.20
2019-05-05T20:10:10.752Z,72.30
2019-05-05T20:12:37.248Z,72.60
2019-05-05T20:15:07.591Z,72.70
2019-05-05T20:17:37.955Z,73.00
2019-05-05T20:20:05.973Z,74.10
2019-05-05T20:22:34.623Z,73.60
2019-05-05T20:25:00.270Z,73.30
2019-05-05T20:27:26.873Z,73.50
2019-05-05T20:29:53.546Z,74.50
2019-05-05T20:32:22.053Z,74.10
2019-05-05T20:34:50.297Z,75.30
2019-05-05T20:37:18.599Z,73.60
2019-05-05T20:39:45.001Z,75.00
2019-05-05T20:42:11.458Z,75.00
2019-05-05T20:44:37.915Z,76.60
2019-05-05T20:47:04.657Z,76.60
2019-05-05T20:49:31.066Z,75.70
2019-05-05T20:51:57.346Z,75.50
2019-05-05T20:54:23.811Z,75.20
2019-05-05T20:56:50.245Z,75.30
2019-05-05T20:59:27.155Z,75.80
2019-05-05T21:01:44.557Z,75.00
2019-05-05T21:04:10.813Z,75.30
2019-05-05T21:06:37.054Z,75.40
2019-05-05T21:09:06.569Z,75.10
2019-05-05T21:11:32.913Z,75.40
2019-05-05T21:13:59.209Z,75.60
2019-05-05T21:16:25.437Z,75.60
2019-05-05T21:18:53.739Z,75.40
2019-05-05T21:21:21.711Z,75.60
2019-05-05T21:23:49.877Z,76.30
2019-05-05T21:26:19.037Z,76.30
2019-05-05T21:28:45.267Z,76.30
2019-05-05T21:31:11.545Z,77.00
2019-05-05T21:33:38.027Z,77.20
2019-05-05T21:36:04.630Z,77.00
2019-05-05T21:38:31.009Z,77.10
2019-05-05T21:40:57.489Z,76.80
2019-05-05T21:43:23.758Z,77.10
2019-05-05T21:45:50.119Z,77.60
2019-05-05T21:48:16.621Z,77.10
2019-05-05T21:50:45.158Z,77.00
2019-05-05T21:53:28.620Z,77.20
2019-05-05T21:55:59.937Z,78.20
2019-05-05T21:58:31.300Z,78.00
2019-05-05T22:01:05.467Z,78.70
2019-05-05T22:03:38.697Z,79.10
2019-05-05T22:06:05.250Z,80.10
2019-05-05T22:08:33.618Z,80.30
2019-05-05T22:11:00.394Z,80.30
2019-05-05T22:13:26.903Z,79.20
2019-05-05T22:15:54.572Z,78.90
2019-05-05T22:18:20.917Z,78.90
2019-05-05T22:21:07.572Z,79.20
2019-05-05T22:23:33.994Z,79.40
2019-05-05T22:26:04.150Z,79.40
2019-05-05T22:28:30.426Z,78.80
2019-05-05T22:30:57.145Z,78.80
2019-05-05T22:33:24.681Z,79.30
2019-05-05T22:35:54.742Z,79.70
2019-05-05T22:38:20.609Z,80.70
2019-05-05T22:40:46.852Z,80.90
2019-05-05T22:43:14.426Z,81.20
2019-05-05T22:45:41.622Z,81.00
2019-05-05T22:48:09.263Z,80.50
2019-05-05T22:50:35.896Z,80.90
2019-05-05T22:53:02.505Z,81.90
2019-05-05T22:55:29.174Z,81.40
2019-05-05T22:57:55.810Z,81.40
2019-05-05T23:00:28.605Z,81.30
2019-05-05T23:02:56.709Z,81.80
2019-05-05T23:05:25.009Z,81.80
2019-05-05T23:07:51.356Z,81.70
2019-05-05T23:10:17.989Z,81.70
2019-05-05T23:12:44.671Z,81.90
2019-05-05T23:15:11.289Z,82.00
2019-05-05T23:17:49.197Z,82.20
2019-05-05T23:20:47.233Z,82.40
2019-05-05T23:23:24.458Z,82.50
2019-05-05T23:25:55.842Z,82.90
2019-05-05T23:28:23.739Z,82.20
2019-05-05T23:30:50.485Z,82.80
2019-05-05T23:33:16.751Z,83.30
2019-05-05T23:35:43.762Z,84.00
2019-05-05T23:38:10.460Z,84.10
2019-05-05T23:40:37.058Z,83.90
2019-05-05T23:43:04.499Z,83.90
2019-05-05T23:45:30.777Z,83.70
2019-05-05T23:47:57.369Z,84.00
2019-05-05T23:50:24.019Z,84.90
2019-05-05T23:52:50.694Z,85.70
2019-05-05T23:55:17.314Z,86.80
2019-05-05T23:57:43.963Z,88.30
